首页
METAR-TAF:

METAR-TAF

机场 :

通孔廷国际机场

德古斯加巴, 洪都拉斯

纬度: 14-03N, 经度: 087-13W, 海拔: 994米

当前天气观测

该预报发布于31分钟前的21:00 UTC
风速9节,风向
温度 25°C
湿度 50%
气压 1017 hPa
能见度10公里或以上
少量云层高于3000英尺
多云层高于8000英尺

METAR: MHTG 222100Z 01009KT 9999 FEW030 BKN080 25/14 Q1017 A3003 NOSIG

时间: 15:31 (21:31 UTC)

预报

该预报发布于5小时和16分钟前的16:15 UTC
预报有效从22日的 18点(UTC)到 23日的 18点(UTC)
风速7节,风向东北
能见度10公里或以上
散云层高于3200英尺, 塔状积云.
成为
从 23日的 03点(UTC)到 23日的 05点(UTC)
风速节,风向
散云层高于2600英尺
散云层高于8000英尺
成为
从 23日的 12点(UTC)到 23日的 14点(UTC)
风速5节,风向东北
散云层高于2600英尺

TAF: MHTG 221615Z 2218/2318 04007KT 9999 SCT032TCU TX26/2220Z TN16/2312Z BECMG 2303/2305 00000KT SCT026 SCT080 BECMG 2312/2314 05005KT SCT026

超过4000个机场的气象观测和天气预报(METAR&TAF报告)。

可查询的气象台以黄色和红色小点在地图上表示。

将鼠标移到小点上方,可查看气象台名称。

然后点击查看天气观测和预报。

如需切换地图:点击带黑十字的绿色按钮放大地图;点击带横线的绿色按钮缩小地图;或者点击绿色箭头查看邻近地区的地图。


METAR-TAF: